• Join FlightAware (Why Join?)
  • Login
  • US Flag 
02:01AM EDT


 

Airport Tracker/Info


-or-


 

Live Flight TrackerFlight Track Log ✈ AWI3770 ✈ 20-Apr-2012 ✈ KTRI - KCLT

Flight Track Log - Related Links

Times and Time Zones

All times are in EDT time to prevent confusion due to time zone crossing. See the AWI3770 flight status page for this flight to view local times or setup timezone preferences in your user account.

Time Position Orientation Groundspeed Altitude Reporting Facility
EDT Latitude Longitude Course Direction KTS MPH feet Rate Location/Type
03:03PM 36.4667 -82.3886 241° Southwest  Level FlightAware Approximate
03:04PM 36.4400 -82.4489 204° Southwest 174 200 3,300  Level Atlanta Center
03:05PM 36.3903 -82.4758 139° Southeast 220 253 5,100 2,340 Climbing Atlanta Center
03:06PM 36.3353 -82.4175 135° Southeast 230 265 8,000 2,400 Climbing Atlanta Center
03:07PM 36.2822 -82.3517 138° Southeast 257 296 10,000 1,920 Climbing Atlanta Center
03:08PM 36.2189 -82.2808 134° Southeast 286 329 11,900 960 Climbing Atlanta Center
03:09PM 36.1656 -82.2128 139° Southeast 304 350 12,000  Climbing Atlanta Center
03:10PM 36.1000 -82.1422 143° Southeast 304 350 12,000  Level Atlanta Center
03:11PM 36.0344 -82.0822 165° South 309 356 12,000  Level Atlanta Center
03:12PM 35.9483 -82.0533 133° Southeast 287 330 12,000  Level Atlanta Center
03:13PM 35.8886 -81.9756 131° Southeast 297 342 12,000  Level Atlanta Center
03:14PM 35.8308 -81.8950 134° Southeast 303 349 12,000  Level Atlanta Center
03:15PM 35.7692 -81.8172 129° Southeast 316 364 12,000  Level Atlanta Center
03:16PM 35.7156 -81.7369 133° Southeast 316 364 12,000  Level Atlanta Center
03:16PM 35.6811 -81.6917 132° Southeast 312 359 12,000 -720 Level Atlanta Center
03:17PM 35.6278 -81.6192 131° Southeast 310 357 11,000 -720 Descending Atlanta Center
03:18PM 35.5997 -81.5792 130° Southeast 311 358 11,000  Level Atlanta Center
03:18PM 35.5739 -81.5417 127° Southeast 301 346 11,000  Level Atlanta Center
03:19PM 35.5481 -81.4989 107° East 305 351 11,000 -540 Level Atlanta Center
03:19PM 35.5367 -81.4533 97° East 305 351 10,500 -1,320 Descending Atlanta Center
03:20PM 35.5314 -81.4025 97° East 290 334 9,700 -1,620 Descending Atlanta Center
03:20PM 35.5261 -81.3467 96° East 295 339 8,900 -1,440 Descending Atlanta Center
03:21PM 35.5175 -81.2500 101° East 282 325 7,500 -1,440 Descending Atlanta Center
03:22PM 35.5028 -81.1536 107° East 268 308 5,900 -1,620 Descending Atlanta Center
03:23PM 35.4800 -81.0650 128° Southeast 267 307 4,100 -1,380 Descending Atlanta Center
03:24PM 35.4431 -81.0078 163° South 248 285 3,300 -600 Descending Atlanta Center
03:25PM 35.3797 -80.9847 163° South 214 246 3,000 -300 Descending Atlanta Center